DAL3120 KIND-KATL
Flight info
| Callsign | DAL3120 |
|---|---|
| Flight time | N/A |
| Altitude | 38000 |
| Route | DAWNN1 MYS HITMN/N0434F370 NEWBB IHAVE MTHEW CHPPR1 |
| Aircraft | A319/M-SDE3FGHIRWY/LB1 |
Departure
| Time | 2026-04-30 02:35 |
|---|---|
| Airport | Indianapolis International Airport (KIND) |
Arrival
| Time | N/A |
|---|---|
| Airport | Hartsfield Jackson Atlanta International Airport (KATL) |
| Time | Latitude | Longitude | Altitude | Speed | Heading |
|---|---|---|---|---|---|
| 2026-04-30 02:05 | 39.71541 | -86.29361 | 788 ft | 0 kts | 321° |
| 2026-04-30 02:25 | 39.71538 | -86.29358 | 788 ft | 3 kts | 321° |
| 2026-04-30 02:25 | 39.71518 | -86.29336 | 788 ft | 4 kts | 316° |
| 2026-04-30 02:26 | 39.71499 | -86.29311 | 787 ft | 4 kts | 315° |
| 2026-04-30 02:26 | 39.71479 | -86.29287 | 787 ft | 4 kts | 318° |
| 2026-04-30 02:26 | 39.71476 | -86.29283 | 787 ft | 0 kts | 320° |
| 2026-04-30 02:28 | 39.71477 | -86.29284 | 787 ft | 1 kts | 326° |
| 2026-04-30 02:28 | 39.71481 | -86.29277 | 787 ft | 1 kts | 50° |
| 2026-04-30 02:29 | 39.71481 | -86.29274 | 787 ft | 0 kts | 66° |
| 2026-04-30 02:29 | 39.71486 | -86.29259 | 787 ft | 4 kts | 66° |
| 2026-04-30 02:29 | 39.71499 | -86.29220 | 787 ft | 6 kts | 66° |
| 2026-04-30 02:30 | 39.71520 | -86.29157 | 787 ft | 9 kts | 66° |
| 2026-04-30 02:30 | 39.71563 | -86.29070 | 787 ft | 13 kts | 50° |
| 2026-04-30 02:30 | 39.71624 | -86.28975 | 786 ft | 15 kts | 50° |
| 2026-04-30 02:30 | 39.71617 | -86.28858 | 786 ft | 15 kts | 132° |
| 2026-04-30 02:31 | 39.71592 | -86.28750 | 786 ft | 14 kts | 60° |
| 2026-04-30 02:31 | 39.71660 | -86.28656 | 786 ft | 15 kts | 44° |
| 2026-04-30 02:31 | 39.71736 | -86.28560 | 784 ft | 16 kts | 45° |
| 2026-04-30 02:31 | 39.71820 | -86.28451 | 785 ft | 17 kts | 44° |
| 2026-04-30 02:32 | 39.71906 | -86.28343 | 786 ft | 17 kts | 45° |
| 2026-04-30 02:32 | 39.71993 | -86.28233 | 787 ft | 17 kts | 44° |
| 2026-04-30 02:32 | 39.72071 | -86.28124 | 789 ft | 15 kts | 71° |
| 2026-04-30 02:32 | 39.72040 | -86.28053 | 788 ft | 8 kts | 127° |
| 2026-04-30 02:33 | 39.72036 | -86.28048 | 788 ft | 0 kts | 130° |
| 2026-04-30 02:33 | 39.72036 | -86.28047 | 788 ft | 1 kts | 130° |
| 2026-04-30 02:34 | 39.72024 | -86.28031 | 788 ft | 5 kts | 134° |
| 2026-04-30 02:34 | 39.71987 | -86.27995 | 788 ft | 7 kts | 181° |
| 2026-04-30 02:34 | 39.71925 | -86.28019 | 789 ft | 11 kts | 217° |
| 2026-04-30 02:34 | 39.71765 | -86.28222 | 786 ft | 72 kts | 225° |
| 2026-04-30 02:35 | 39.71196 | -86.28964 | 797 ft | 156 kts | 226° |
| 2026-04-30 02:35 | 39.70385 | -86.30024 | 1358 ft | 175 kts | 227° |
| 2026-04-30 02:35 | 39.69392 | -86.30991 | 2259 ft | 183 kts | 212° |
| 2026-04-30 02:35 | 39.68183 | -86.31658 | 2938 ft | 199 kts | 206° |
| 2026-04-30 02:36 | 39.66813 | -86.32327 | 3341 ft | 222 kts | 205° |
| 2026-04-30 02:36 | 39.65304 | -86.33052 | 3817 ft | 242 kts | 203° |
| 2026-04-30 02:36 | 39.63564 | -86.33282 | 4483 ft | 260 kts | 178° |
| 2026-04-30 02:36 | 39.61753 | -86.33065 | 5404 ft | 260 kts | 178° |
| 2026-04-30 02:37 | 39.59907 | -86.32878 | 5964 ft | 277 kts | 179° |
| 2026-04-30 02:37 | 39.57946 | -86.32698 | 6797 ft | 286 kts | 179° |
| 2026-04-30 02:37 | 39.55949 | -86.32513 | 7771 ft | 289 kts | 180° |
| 2026-04-30 02:37 | 39.53956 | -86.32325 | 8761 ft | 292 kts | 181° |
| 2026-04-30 02:38 | 39.51920 | -86.32128 | 9729 ft | 295 kts | 182° |
| 2026-04-30 02:38 | 39.49843 | -86.31928 | 10442 ft | 307 kts | 182° |
| 2026-04-30 02:38 | 39.47636 | -86.31723 | 10900 ft | 326 kts | 182° |
| 2026-04-30 02:38 | 39.45351 | -86.31504 | 11667 ft | 332 kts | 183° |
| 2026-04-30 02:39 | 39.43033 | -86.31276 | 12516 ft | 336 kts | 183° |
| 2026-04-30 02:39 | 39.40690 | -86.31038 | 13373 ft | 339 kts | 184° |
| 2026-04-30 02:39 | 39.38331 | -86.30799 | 14177 ft | 342 kts | 184° |
| 2026-04-30 02:39 | 39.35936 | -86.30560 | 14904 ft | 346 kts | 185° |
| 2026-04-30 02:40 | 39.33527 | -86.30321 | 15614 ft | 350 kts | 185° |
| 2026-04-30 02:40 | 39.31085 | -86.30083 | 16314 ft | 354 kts | 185° |
| 2026-04-30 02:40 | 39.28616 | -86.29846 | 16963 ft | 358 kts | 185° |
| 2026-04-30 02:40 | 39.26116 | -86.29605 | 17639 ft | 362 kts | 185° |
| 2026-04-30 02:41 | 39.23586 | -86.29359 | 18314 ft | 366 kts | 185° |
| 2026-04-30 02:41 | 39.21029 | -86.29110 | 18925 ft | 370 kts | 185° |
| 2026-04-30 02:41 | 39.18446 | -86.28856 | 19564 ft | 372 kts | 185° |
| 2026-04-30 02:41 | 39.15853 | -86.28599 | 20209 ft | 375 kts | 186° |
| 2026-04-30 02:42 | 39.13243 | -86.28343 | 20853 ft | 377 kts | 186° |
| 2026-04-30 02:42 | 39.10616 | -86.28083 | 21478 ft | 380 kts | 186° |
| 2026-04-30 02:42 | 39.07973 | -86.27824 | 22088 ft | 382 kts | 186° |
| 2026-04-30 02:42 | 39.05313 | -86.27562 | 22669 ft | 385 kts | 187° |
| 2026-04-30 02:43 | 39.02642 | -86.27304 | 23297 ft | 387 kts | 188° |
| 2026-04-30 02:43 | 38.99957 | -86.27105 | 23860 ft | 382 kts | 194° |
| 2026-04-30 02:43 | 38.97350 | -86.27420 | 24357 ft | 376 kts | 199° |
| 2026-04-30 02:43 | 38.94738 | -86.27807 | 24851 ft | 378 kts | 199° |
| 2026-04-30 02:44 | 38.92116 | -86.28203 | 25339 ft | 381 kts | 199° |
| 2026-04-30 02:44 | 38.89483 | -86.28602 | 25824 ft | 383 kts | 199° |
| 2026-04-30 02:44 | 38.86822 | -86.29006 | 26289 ft | 386 kts | 199° |
| 2026-04-30 02:44 | 38.84148 | -86.29413 | 26762 ft | 388 kts | 199° |
| 2026-04-30 02:45 | 38.81450 | -86.29821 | 27187 ft | 391 kts | 199° |
| 2026-04-30 02:45 | 38.78775 | -86.30222 | 27639 ft | 394 kts | 199° |
| 2026-04-30 02:45 | 38.76042 | -86.30631 | 28076 ft | 396 kts | 200° |
| 2026-04-30 02:45 | 38.73297 | -86.31042 | 28511 ft | 399 kts | 200° |
| 2026-04-30 02:46 | 38.70530 | -86.31455 | 28934 ft | 402 kts | 200° |
| 2026-04-30 02:46 | 38.67743 | -86.31872 | 29355 ft | 404 kts | 200° |
| 2026-04-30 02:46 | 38.64938 | -86.32292 | 29749 ft | 407 kts | 200° |
| 2026-04-30 02:46 | 38.62113 | -86.32713 | 30151 ft | 410 kts | 200° |
| 2026-04-30 02:47 | 38.59269 | -86.33130 | 30438 ft | 413 kts | 200° |
| 2026-04-30 02:47 | 38.56412 | -86.33545 | 30807 ft | 414 kts | 200° |
| 2026-04-30 02:47 | 38.53546 | -86.33969 | 31149 ft | 416 kts | 200° |
| 2026-04-30 02:47 | 38.50666 | -86.34399 | 31471 ft | 418 kts | 200° |
| 2026-04-30 02:48 | 38.47771 | -86.34833 | 31782 ft | 420 kts | 200° |
| 2026-04-30 02:48 | 38.44858 | -86.35269 | 32083 ft | 423 kts | 200° |
| 2026-04-30 02:48 | 38.41929 | -86.35707 | 32383 ft | 425 kts | 200° |
| 2026-04-30 02:48 | 38.38987 | -86.36146 | 32744 ft | 426 kts | 200° |
| 2026-04-30 02:49 | 38.36046 | -86.36574 | 33167 ft | 425 kts | 200° |
| 2026-04-30 02:49 | 38.33111 | -86.36997 | 33593 ft | 424 kts | 200° |
| 2026-04-30 02:49 | 38.30181 | -86.37423 | 34007 ft | 423 kts | 200° |
| 2026-04-30 02:49 | 38.27260 | -86.37848 | 34351 ft | 423 kts | 200° |
| 2026-04-30 02:50 | 38.24330 | -86.38277 | 34673 ft | 423 kts | 200° |
| 2026-04-30 02:50 | 38.21409 | -86.38713 | 34983 ft | 422 kts | 200° |
| 2026-04-30 02:50 | 38.18496 | -86.39150 | 35299 ft | 422 kts | 200° |
| 2026-04-30 02:50 | 38.15577 | -86.39584 | 35615 ft | 422 kts | 200° |
| 2026-04-30 02:51 | 38.12658 | -86.40015 | 35861 ft | 422 kts | 200° |
| 2026-04-30 02:51 | 38.09740 | -86.40445 | 36153 ft | 422 kts | 200° |
| 2026-04-30 02:51 | 38.06824 | -86.40873 | 36444 ft | 422 kts | 200° |
| 2026-04-30 02:51 | 38.03907 | -86.41298 | 36714 ft | 422 kts | 200° |
| 2026-04-30 02:52 | 38.00991 | -86.41723 | 36985 ft | 422 kts | 200° |
| 2026-04-30 02:52 | 37.98075 | -86.42149 | 37254 ft | 422 kts | 200° |
| 2026-04-30 02:52 | 37.95159 | -86.42573 | 37518 ft | 422 kts | 200° |
| 2026-04-30 02:52 | 37.92244 | -86.42994 | 37785 ft | 421 kts | 200° |
| 2026-04-30 02:53 | 37.89329 | -86.43418 | 37928 ft | 422 kts | 200° |
| 2026-04-30 02:53 | 37.83533 | -86.44261 | 38025 ft | 416 kts | 200° |
| 2026-04-30 02:54 | 37.77798 | -86.45094 | 38024 ft | 414 kts | 200° |
| 2026-04-30 02:54 | 37.72081 | -86.45934 | 38025 ft | 414 kts | 200° |
| 2026-04-30 02:55 | 37.66392 | -86.46767 | 38028 ft | 414 kts | 200° |
| 2026-04-30 02:55 | 37.60693 | -86.47596 | 38032 ft | 412 kts | 201° |
| 2026-04-30 02:56 | 37.55003 | -86.48420 | 38043 ft | 411 kts | 201° |
| 2026-04-30 02:56 | 37.52175 | -86.48822 | 37751 ft | 408 kts | 201° |
| 2026-04-30 02:56 | 37.49360 | -86.49222 | 37206 ft | 406 kts | 202° |
| 2026-04-30 02:56 | 37.46557 | -86.49622 | 37012 ft | 405 kts | 202° |
| 2026-04-30 02:57 | 37.43754 | -86.50028 | 37044 ft | 406 kts | 202° |
| 2026-04-30 02:57 | 37.38145 | -86.50841 | 37041 ft | 404 kts | 203° |
| 2026-04-30 02:58 | 37.32573 | -86.51644 | 37039 ft | 402 kts | 203° |
| 2026-04-30 02:58 | 37.27013 | -86.52446 | 37045 ft | 403 kts | 203° |
| 2026-04-30 02:59 | 37.21445 | -86.53242 | 37049 ft | 403 kts | 203° |
| 2026-04-30 02:59 | 37.15875 | -86.54044 | 37016 ft | 402 kts | 204° |
| 2026-04-30 03:00 | 37.10330 | -86.54841 | 37031 ft | 401 kts | 204° |
| 2026-04-30 03:00 | 37.04777 | -86.55632 | 37054 ft | 401 kts | 204° |
| 2026-04-30 03:01 | 36.99270 | -86.56415 | 37058 ft | 400 kts | 204° |
| 2026-04-30 03:01 | 36.93726 | -86.57204 | 37021 ft | 400 kts | 204° |
| 2026-04-30 03:02 | 36.88196 | -86.57993 | 37041 ft | 399 kts | 204° |
| 2026-04-30 03:02 | 36.82675 | -86.58773 | 37048 ft | 399 kts | 204° |
| 2026-04-30 03:03 | 36.77160 | -86.59553 | 37046 ft | 398 kts | 204° |
| 2026-04-30 03:03 | 36.68940 | -86.60716 | 36981 ft | 398 kts | 204° |
| 2026-04-30 03:04 | 36.64320 | -86.61379 | 37032 ft | 400 kts | 204° |
| 2026-04-30 03:04 | 36.58788 | -86.62163 | 37040 ft | 400 kts | 204° |
| 2026-04-30 03:05 | 36.53254 | -86.62936 | 37063 ft | 399 kts | 204° |
| 2026-04-30 03:05 | 36.47730 | -86.63711 | 37070 ft | 399 kts | 204° |
| 2026-04-30 03:06 | 36.36473 | -86.65294 | 37053 ft | 400 kts | 204° |
| 2026-04-30 03:07 | 36.30933 | -86.66074 | 37049 ft | 400 kts | 204° |
| 2026-04-30 03:07 | 36.25394 | -86.66846 | 37060 ft | 400 kts | 204° |
| 2026-04-30 03:08 | 36.19862 | -86.67612 | 36993 ft | 400 kts | 204° |
| 2026-04-30 03:08 | 36.17058 | -86.67900 | 37067 ft | 414 kts | 197° |
| 2026-04-30 03:08 | 36.14163 | -86.67620 | 37052 ft | 431 kts | 186° |
| 2026-04-30 03:09 | 36.11215 | -86.66599 | 36895 ft | 447 kts | 174° |
| 2026-04-30 03:09 | 36.08378 | -86.64819 | 36482 ft | 461 kts | 166° |
| 2026-04-30 03:09 | 36.05585 | -86.62851 | 35946 ft | 462 kts | 165° |
| 2026-04-30 03:09 | 36.02798 | -86.60862 | 35359 ft | 463 kts | 165° |
| 2026-04-30 03:10 | 36.00041 | -86.58889 | 34798 ft | 465 kts | 165° |
| 2026-04-30 03:10 | 35.97230 | -86.56885 | 34226 ft | 466 kts | 165° |
| 2026-04-30 03:10 | 35.94412 | -86.54890 | 33581 ft | 467 kts | 165° |
| 2026-04-30 03:10 | 35.91589 | -86.52900 | 33149 ft | 464 kts | 165° |
| 2026-04-30 03:11 | 35.88776 | -86.50924 | 32980 ft | 463 kts | 165° |
| 2026-04-30 03:11 | 35.85975 | -86.48962 | 33030 ft | 463 kts | 165° |
| 2026-04-30 03:11 | 35.80364 | -86.45039 | 33036 ft | 463 kts | 165° |
| 2026-04-30 03:12 | 35.74792 | -86.41143 | 33028 ft | 463 kts | 165° |
| 2026-04-30 03:12 | 35.69186 | -86.37204 | 32996 ft | 464 kts | 164° |
| 2026-04-30 03:13 | 35.63587 | -86.33227 | 33025 ft | 466 kts | 163° |
| 2026-04-30 03:13 | 35.57979 | -86.29240 | 33023 ft | 465 kts | 163° |
| 2026-04-30 03:14 | 35.52374 | -86.25266 | 33020 ft | 465 kts | 164° |
| 2026-04-30 03:14 | 35.46779 | -86.21313 | 33010 ft | 464 kts | 164° |
| 2026-04-30 03:15 | 35.41298 | -86.17002 | 33020 ft | 478 kts | 153° |
| 2026-04-30 03:15 | 35.36072 | -86.11929 | 33012 ft | 479 kts | 153° |
| 2026-04-30 03:16 | 35.30850 | -86.06863 | 33022 ft | 479 kts | 153° |
| 2026-04-30 03:16 | 35.25638 | -86.01808 | 33023 ft | 478 kts | 154° |
| 2026-04-30 03:17 | 35.20402 | -85.96783 | 32718 ft | 478 kts | 154° |
| 2026-04-30 03:17 | 35.17791 | -85.94290 | 32418 ft | 475 kts | 154° |
| 2026-04-30 03:17 | 35.15198 | -85.91816 | 32127 ft | 471 kts | 153° |
| 2026-04-30 03:18 | 35.12617 | -85.89352 | 31879 ft | 468 kts | 153° |
| 2026-04-30 03:18 | 35.10068 | -85.86917 | 31631 ft | 465 kts | 153° |
| 2026-04-30 03:18 | 35.07528 | -85.84493 | 31386 ft | 462 kts | 153° |
| 2026-04-30 03:18 | 35.05003 | -85.82082 | 31132 ft | 459 kts | 153° |
| 2026-04-30 03:19 | 35.02500 | -85.79691 | 30661 ft | 456 kts | 153° |